sensor_id;sensor_type;location;lat;lon;timestamp;P1;durP1;ratioP1;P2;durP2;ratioP2
3095;SDS011;1558;42.700;23.360;2023-06-01T00:01:02;2.13;;;2.03;;
3095;SDS011;1558;42.700;23.360;2023-06-01T00:03:30;1.87;;;1.77;;
3095;SDS011;1558;42.700;23.360;2023-06-01T00:06:00;2.10;;;1.70;;
3095;SDS011;1558;42.700;23.360;2023-06-01T00:08:28;2.57;;;1.77;;
3095;SDS011;1558;42.700;23.360;2023-06-01T00:10:56;2.00;;;1.80;;
3095;SDS011;1558;42.700;23.360;2023-06-01T00:13:24;3.50;;;2.27;;
3095;SDS011;1558;42.700;23.360;2023-06-01T00:15:52;3.37;;;2.17;;
3095;SDS011;1558;42.700;23.360;2023-06-01T00:18:20;3.97;;;2.20;;
3095;SDS011;1558;42.700;23.360;2023-06-01T00:20:48;2.87;;;1.90;;
3095;SDS011;1558;42.700;23.360;2023-06-01T00:23:19;2.87;;;1.80;;
3095;SDS011;1558;42.700;23.360;2023-06-01T00:25:48;3.07;;;2.00;;
3095;SDS011;1558;42.700;23.360;2023-06-01T00:28:16;2.70;;;1.73;;
3095;SDS011;1558;42.700;23.360;2023-06-01T00:30:44;2.20;;;1.67;;
3095;SDS011;1558;42.700;23.360;2023-06-01T00:33:12;1.93;;;1.30;;
3095;SDS011;1558;42.700;23.360;2023-06-01T00:35:40;5.10;;;2.50;;
3095;SDS011;1558;42.700;23.360;2023-06-01T00:38:08;2.60;;;2.13;;
3095;SDS011;1558;42.700;23.360;2023-06-01T00:40:38;2.20;;;2.00;;
3095;SDS011;1558;42.700;23.360;2023-06-01T00:43:06;1.90;;;1.70;;
3095;SDS011;1558;42.700;23.360;2023-06-01T00:45:34;2.20;;;2.00;;
3095;SDS011;1558;42.700;23.360;2023-06-01T00:48:04;2.93;;;1.80;;
3095;SDS011;1558;42.700;23.360;2023-06-01T00:50:32;3.03;;;1.67;;
3095;SDS011;1558;42.700;23.360;2023-06-01T00:53:00;2.67;;;1.93;;
3095;SDS011;1558;42.700;23.360;2023-06-01T00:55:30;2.27;;;2.07;;
3095;SDS011;1558;42.700;23.360;2023-06-01T00:58:00;3.33;;;2.33;;
3095;SDS011;1558;42.700;23.360;2023-06-01T01:00:28;6.33;;;2.10;;
3095;SDS011;1558;42.700;23.360;2023-06-01T01:02:57;1.63;;;1.53;;
3095;SDS011;1558;42.700;23.360;2023-06-01T01:05:27;2.47;;;1.57;;
3095;SDS011;1558;42.700;23.360;2023-06-01T01:07:57;2.87;;;1.67;;
3095;SDS011;1558;42.700;23.360;2023-06-01T01:10:32;2.10;;;1.90;;
3095;SDS011;1558;42.700;23.360;2023-06-01T01:13:06;2.90;;;1.83;;
3095;SDS011;1558;42.700;23.360;2023-06-01T01:15:43;1.83;;;1.67;;
3095;SDS011;1558;42.700;23.360;2023-06-01T01:18:15;3.60;;;1.90;;
3095;SDS011;1558;42.700;23.360;2023-06-01T01:20:48;2.83;;;1.63;;
3095;SDS011;1558;42.700;23.360;2023-06-01T01:23:31;1.57;;;1.30;;
3095;SDS011;1558;42.700;23.360;2023-06-01T01:26:18;2.03;;;1.60;;
3095;SDS011;1558;42.700;23.360;2023-06-01T01:29:00;1.73;;;1.53;;
3095;SDS011;1558;42.700;23.360;2023-06-01T01:31:30;2.30;;;1.10;;
3095;SDS011;1558;42.700;23.360;2023-06-01T01:34:02;3.13;;;1.87;;
3095;SDS011;1558;42.700;23.360;2023-06-01T01:36:30;1.77;;;1.57;;
3095;SDS011;1558;42.700;23.360;2023-06-01T01:38:59;1.30;;;1.20;;
3095;SDS011;1558;42.700;23.360;2023-06-01T01:41:28;2.27;;;1.37;;
3095;SDS011;1558;42.700;23.360;2023-06-01T01:43:57;1.50;;;1.40;;
3095;SDS011;1558;42.700;23.360;2023-06-01T01:46:27;1.63;;;1.30;;
3095;SDS011;1558;42.700;23.360;2023-06-01T01:49:01;6.30;;;5.73;;
3095;SDS011;1558;42.700;23.360;2023-06-01T01:51:37;14.10;;;10.87;;
3095;SDS011;1558;42.700;23.360;2023-06-01T01:54:11;14.03;;;12.17;;
3095;SDS011;1558;42.700;23.360;2023-06-01T01:56:40;14.53;;;12.30;;
3095;SDS011;1558;42.700;23.360;2023-06-01T01:59:11;13.20;;;11.57;;
3095;SDS011;1558;42.700;23.360;2023-06-01T02:01:40;12.10;;;10.60;;
3095;SDS011;1558;42.700;23.360;2023-06-01T02:04:11;12.20;;;10.63;;
3095;SDS011;1558;42.700;23.360;2023-06-01T02:06:39;11.83;;;10.40;;
3095;SDS011;1558;42.700;23.360;2023-06-01T02:09:07;12.20;;;10.77;;
3095;SDS011;1558;42.700;23.360;2023-06-01T02:11:35;11.80;;;10.60;;
3095;SDS011;1558;42.700;23.360;2023-06-01T02:14:03;11.80;;;10.77;;
3095;SDS011;1558;42.700;23.360;2023-06-01T02:16:33;12.00;;;10.80;;
3095;SDS011;1558;42.700;23.360;2023-06-01T02:19:02;20.70;;;11.70;;
3095;SDS011;1558;42.700;23.360;2023-06-01T02:21:31;16.33;;;11.40;;
3095;SDS011;1558;42.700;23.360;2023-06-01T02:23:59;14.13;;;10.83;;
3095;SDS011;1558;42.700;23.360;2023-06-01T02:26:31;17.73;;;11.57;;
3095;SDS011;1558;42.700;23.360;2023-06-01T02:28:59;15.20;;;10.93;;
3095;SDS011;1558;42.700;23.360;2023-06-01T02:31:28;19.40;;;11.43;;
3095;SDS011;1558;42.700;23.360;2023-06-01T02:33:58;14.60;;;11.30;;
3095;SDS011;1558;42.700;23.360;2023-06-01T02:36:26;20.87;;;11.80;;
3095;SDS011;1558;42.700;23.360;2023-06-01T02:38:55;12.93;;;11.57;;
3095;SDS011;1558;42.700;23.360;2023-06-01T02:41:23;17.13;;;11.30;;
3095;SDS011;1558;42.700;23.360;2023-06-01T02:43:52;20.93;;;12.00;;
3095;SDS011;1558;42.700;23.360;2023-06-01T02:46:20;12.13;;;10.83;;
3095;SDS011;1558;42.700;23.360;2023-06-01T02:48:48;15.77;;;12.00;;
3095;SDS011;1558;42.700;23.360;2023-06-01T02:51:18;16.57;;;12.13;;
3095;SDS011;1558;42.700;23.360;2023-06-01T02:53:47;13.57;;;11.83;;
3095;SDS011;1558;42.700;23.360;2023-06-01T02:56:15;20.57;;;11.07;;
3095;SDS011;1558;42.700;23.360;2023-06-01T02:58:43;13.47;;;11.27;;
3095;SDS011;1558;42.700;23.360;2023-06-01T03:01:11;16.33;;;12.17;;
3095;SDS011;1558;42.700;23.360;2023-06-01T03:03:41;15.03;;;12.10;;
3095;SDS011;1558;42.700;23.360;2023-06-01T03:06:11;14.63;;;11.80;;
3095;SDS011;1558;42.700;23.360;2023-06-01T03:08:41;19.37;;;12.77;;
3095;SDS011;1558;42.700;23.360;2023-06-01T03:11:09;14.63;;;11.53;;
3095;SDS011;1558;42.700;23.360;2023-06-01T03:13:37;14.23;;;12.23;;
3095;SDS011;1558;42.700;23.360;2023-06-01T03:16:05;12.80;;;11.50;;
3095;SDS011;1558;42.700;23.360;2023-06-01T03:18:33;15.03;;;11.87;;
3095;SDS011;1558;42.700;23.360;2023-06-01T03:21:04;14.80;;;12.50;;
3095;SDS011;1558;42.700;23.360;2023-06-01T03:23:32;15.43;;;12.90;;
3095;SDS011;1558;42.700;23.360;2023-06-01T03:26:02;21.83;;;14.00;;
3095;SDS011;1558;42.700;23.360;2023-06-01T03:28:31;19.80;;;14.73;;
3095;SDS011;1558;42.700;23.360;2023-06-01T03:30:59;16.87;;;13.90;;
3095;SDS011;1558;42.700;23.360;2023-06-01T03:33:28;17.90;;;14.37;;
3095;SDS011;1558;42.700;23.360;2023-06-01T03:35:56;29.60;;;14.63;;
3095;SDS011;1558;42.700;23.360;2023-06-01T03:38:24;45.57;;;17.87;;
3095;SDS011;1558;42.700;23.360;2023-06-01T03:40:53;50.17;;;16.97;;
3095;SDS011;1558;42.700;23.360;2023-06-01T03:43:22;51.37;;;18.07;;
3095;SDS011;1558;42.700;23.360;2023-06-01T03:45:51;27.63;;;18.43;;
3095;SDS011;1558;42.700;23.360;2023-06-01T03:48:19;18.67;;;14.57;;
3095;SDS011;1558;42.700;23.360;2023-06-01T03:50:47;17.90;;;13.53;;
3095;SDS011;1558;42.700;23.360;2023-06-01T03:53:15;13.53;;;11.63;;
3095;SDS011;1558;42.700;23.360;2023-06-01T03:55:43;12.80;;;11.60;;
3095;SDS011;1558;42.700;23.360;2023-06-01T03:58:11;13.40;;;10.63;;
3095;SDS011;1558;42.700;23.360;2023-06-01T04:00:40;11.93;;;10.73;;
3095;SDS011;1558;42.700;23.360;2023-06-01T04:03:10;17.30;;;15.60;;
3095;SDS011;1558;42.700;23.360;2023-06-01T04:05:38;13.57;;;12.20;;
3095;SDS011;1558;42.700;23.360;2023-06-01T04:08:07;12.70;;;11.50;;
3095;SDS011;1558;42.700;23.360;2023-06-01T04:10:37;13.73;;;12.40;;
3095;SDS011;1558;42.700;23.360;2023-06-01T04:13:07;13.63;;;12.37;;
3095;SDS011;1558;42.700;23.360;2023-06-01T04:15:35;14.20;;;13.00;;
3095;SDS011;1558;42.700;23.360;2023-06-01T04:18:05;13.97;;;12.67;;
3095;SDS011;1558;42.700;23.360;2023-06-01T04:20:33;16.43;;;14.33;;
3095;SDS011;1558;42.700;23.360;2023-06-01T04:23:01;15.03;;;13.60;;
3095;SDS011;1558;42.700;23.360;2023-06-01T04:25:29;15.83;;;14.30;;
3095;SDS011;1558;42.700;23.360;2023-06-01T04:27:58;21.80;;;14.67;;
3095;SDS011;1558;42.700;23.360;2023-06-01T04:30:26;17.53;;;15.70;;
3095;SDS011;1558;42.700;23.360;2023-06-01T04:32:54;19.17;;;16.57;;
3095;SDS011;1558;42.700;23.360;2023-06-01T04:35:24;17.20;;;15.60;;
3095;SDS011;1558;42.700;23.360;2023-06-01T04:37:52;21.23;;;16.60;;
3095;SDS011;1558;42.700;23.360;2023-06-01T04:40:20;18.27;;;16.40;;
3095;SDS011;1558;42.700;23.360;2023-06-01T04:42:48;18.57;;;16.53;;
3095;SDS011;1558;42.700;23.360;2023-06-01T04:45:18;17.57;;;15.77;;
3095;SDS011;1558;42.700;23.360;2023-06-01T04:47:46;20.10;;;17.37;;
3095;SDS011;1558;42.700;23.360;2023-06-01T04:50:15;18.57;;;16.77;;
3095;SDS011;1558;42.700;23.360;2023-06-01T04:52:44;18.93;;;17.03;;
3095;SDS011;1558;42.700;23.360;2023-06-01T04:55:14;20.60;;;17.77;;
3095;SDS011;1558;42.700;23.360;2023-06-01T04:57:43;21.80;;;19.63;;
3095;SDS011;1558;42.700;23.360;2023-06-01T05:00:12;23.07;;;18.77;;
3095;SDS011;1558;42.700;23.360;2023-06-01T05:02:44;20.13;;;17.97;;
3095;SDS011;1558;42.700;23.360;2023-06-01T05:05:14;20.80;;;18.80;;
3095;SDS011;1558;42.700;23.360;2023-06-01T05:07:44;27.70;;;19.03;;
3095;SDS011;1558;42.700;23.360;2023-06-01T05:10:13;22.23;;;18.53;;
3095;SDS011;1558;42.700;23.360;2023-06-01T05:12:41;20.30;;;18.27;;
3095;SDS011;1558;42.700;23.360;2023-06-01T05:15:09;21.43;;;17.67;;
3095;SDS011;1558;42.700;23.360;2023-06-01T05:17:38;21.17;;;18.97;;
3095;SDS011;1558;42.700;23.360;2023-06-01T05:20:07;22.43;;;19.27;;
3095;SDS011;1558;42.700;23.360;2023-06-01T05:22:38;22.73;;;18.40;;
3095;SDS011;1558;42.700;23.360;2023-06-01T05:25:08;20.50;;;18.10;;
3095;SDS011;1558;42.700;23.360;2023-06-01T05:27:37;24.43;;;19.30;;
3095;SDS011;1558;42.700;23.360;2023-06-01T05:30:06;22.77;;;18.80;;
3095;SDS011;1558;42.700;23.360;2023-06-01T05:32:34;22.57;;;20.00;;
3095;SDS011;1558;42.700;23.360;2023-06-01T05:35:03;21.73;;;18.87;;
3095;SDS011;1558;42.700;23.360;2023-06-01T05:37:32;22.50;;;19.63;;
3095;SDS011;1558;42.700;23.360;2023-06-01T05:40:00;23.73;;;21.02;;
3095;SDS011;1558;42.700;23.360;2023-06-01T05:42:33;25.15;;;22.20;;
3095;SDS011;1558;42.700;23.360;2023-06-01T05:45:02;29.77;;;22.83;;
3095;SDS011;1558;42.700;23.360;2023-06-01T05:47:31;25.40;;;22.48;;
3095;SDS011;1558;42.700;23.360;2023-06-01T05:49:59;26.20;;;23.35;;
3095;SDS011;1558;42.700;23.360;2023-06-01T05:52:28;28.00;;;23.05;;
3095;SDS011;1558;42.700;23.360;2023-06-01T05:54:56;27.83;;;23.42;;
3095;SDS011;1558;42.700;23.360;2023-06-01T05:57:24;28.40;;;23.65;;
3095;SDS011;1558;42.700;23.360;2023-06-01T05:59:53;28.70;;;24.75;;
3095;SDS011;1558;42.700;23.360;2023-06-01T06:02:21;28.90;;;23.85;;
3095;SDS011;1558;42.700;23.360;2023-06-01T06:04:49;29.75;;;25.65;;
3095;SDS011;1558;42.700;23.360;2023-06-01T06:07:20;28.92;;;24.90;;
3095;SDS011;1558;42.700;23.360;2023-06-01T06:09:49;29.63;;;26.30;;
3095;SDS011;1558;42.700;23.360;2023-06-01T06:12:17;29.55;;;24.40;;
3095;SDS011;1558;42.700;23.360;2023-06-01T06:14:46;29.08;;;26.25;;
3095;SDS011;1558;42.700;23.360;2023-06-01T06:17:16;27.73;;;24.77;;
3095;SDS011;1558;42.700;23.360;2023-06-01T06:19:44;30.88;;;26.13;;
3095;SDS011;1558;42.700;23.360;2023-06-01T06:22:14;33.40;;;26.13;;
3095;SDS011;1558;42.700;23.360;2023-06-01T06:24:42;28.48;;;25.60;;
3095;SDS011;1558;42.700;23.360;2023-06-01T06:27:10;37.58;;;26.85;;
3095;SDS011;1558;42.700;23.360;2023-06-01T06:29:39;30.60;;;25.25;;
3095;SDS011;1558;42.700;23.360;2023-06-01T06:32:08;32.35;;;26.05;;
3095;SDS011;1558;42.700;23.360;2023-06-01T06:34:38;31.33;;;26.92;;
3095;SDS011;1558;42.700;23.360;2023-06-01T06:37:06;32.63;;;28.08;;
3095;SDS011;1558;42.700;23.360;2023-06-01T06:39:37;43.88;;;31.65;;
3095;SDS011;1558;42.700;23.360;2023-06-01T06:42:06;35.05;;;29.45;;
3095;SDS011;1558;42.700;23.360;2023-06-01T06:44:34;33.50;;;28.17;;
3095;SDS011;1558;42.700;23.360;2023-06-01T06:47:02;29.38;;;26.35;;
3095;SDS011;1558;42.700;23.360;2023-06-01T06:49:32;30.15;;;26.90;;
3095;SDS011;1558;42.700;23.360;2023-06-01T06:52:01;36.50;;;28.90;;
3095;SDS011;1558;42.700;23.360;2023-06-01T06:54:31;37.35;;;29.60;;
3095;SDS011;1558;42.700;23.360;2023-06-01T06:57:02;34.15;;;30.48;;
3095;SDS011;1558;42.700;23.360;2023-06-01T06:59:31;34.70;;;30.63;;
3095;SDS011;1558;42.700;23.360;2023-06-01T07:01:59;36.60;;;29.48;;
3095;SDS011;1558;42.700;23.360;2023-06-01T07:04:27;36.58;;;30.92;;
3095;SDS011;1558;42.700;23.360;2023-06-01T07:06:56;36.13;;;32.17;;
3095;SDS011;1558;42.700;23.360;2023-06-01T07:09:25;39.00;;;34.22;;
3095;SDS011;1558;42.700;23.360;2023-06-01T07:11:53;42.13;;;33.80;;
3095;SDS011;1558;42.700;23.360;2023-06-01T07:14:23;38.63;;;34.55;;
3095;SDS011;1558;42.700;23.360;2023-06-01T07:16:52;39.63;;;35.42;;
3095;SDS011;1558;42.700;23.360;2023-06-01T07:19:20;38.50;;;34.70;;
3095;SDS011;1558;42.700;23.360;2023-06-01T07:21:48;45.38;;;35.85;;
3095;SDS011;1558;42.700;23.360;2023-06-01T07:24:17;42.28;;;36.53;;
3095;SDS011;1558;42.700;23.360;2023-06-01T07:26:46;39.05;;;34.20;;
3095;SDS011;1558;42.700;23.360;2023-06-01T07:29:17;41.67;;;33.55;;
3095;SDS011;1558;42.700;23.360;2023-06-01T07:31:45;38.55;;;34.42;;
3095;SDS011;1558;42.700;23.360;2023-06-01T07:34:13;38.00;;;32.85;;
3095;SDS011;1558;42.700;23.360;2023-06-01T07:36:42;42.35;;;35.40;;
3095;SDS011;1558;42.700;23.360;2023-06-01T07:39:12;39.78;;;35.75;;
3095;SDS011;1558;42.700;23.360;2023-06-01T07:41:41;39.50;;;34.47;;
3095;SDS011;1558;42.700;23.360;2023-06-01T07:44:14;39.90;;;36.05;;
3095;SDS011;1558;42.700;23.360;2023-06-01T07:46:44;43.35;;;38.97;;
3095;SDS011;1558;42.700;23.360;2023-06-01T07:49:13;54.35;;;38.53;;
3095;SDS011;1558;42.700;23.360;2023-06-01T07:51:41;44.67;;;39.55;;
3095;SDS011;1558;42.700;23.360;2023-06-01T07:54:10;42.90;;;38.40;;
3095;SDS011;1558;42.700;23.360;2023-06-01T07:56:38;41.83;;;37.40;;
3095;SDS011;1558;42.700;23.360;2023-06-01T07:59:06;42.92;;;38.72;;
3095;SDS011;1558;42.700;23.360;2023-06-01T08:01:35;40.70;;;36.65;;
3095;SDS011;1558;42.700;23.360;2023-06-01T08:04:04;41.50;;;35.50;;
3095;SDS011;1558;42.700;23.360;2023-06-01T08:06:32;38.35;;;34.55;;
3095;SDS011;1558;42.700;23.360;2023-06-01T08:09:01;34.83;;;31.67;;
3095;SDS011;1558;42.700;23.360;2023-06-01T08:11:33;34.35;;;29.83;;
3095;SDS011;1558;42.700;23.360;2023-06-01T08:14:01;32.80;;;29.58;;
3095;SDS011;1558;42.700;23.360;2023-06-01T08:16:34;33.03;;;29.83;;
3095;SDS011;1558;42.700;23.360;2023-06-01T08:19:03;37.88;;;29.67;;
3095;SDS011;1558;42.700;23.360;2023-06-01T08:21:31;33.47;;;30.00;;
3095;SDS011;1558;42.700;23.360;2023-06-01T08:24:00;28.25;;;25.33;;
3095;SDS011;1558;42.700;23.360;2023-06-01T08:26:29;32.47;;;28.98;;
3095;SDS011;1558;42.700;23.360;2023-06-01T08:28:57;28.60;;;25.77;;
3095;SDS011;1558;42.700;23.360;2023-06-01T08:31:25;29.58;;;26.77;;
3095;SDS011;1558;42.700;23.360;2023-06-01T08:33:55;28.00;;;25.02;;
3095;SDS011;1558;42.700;23.360;2023-06-01T08:36:23;28.60;;;26.05;;
3095;SDS011;1558;42.700;23.360;2023-06-01T08:38:53;27.98;;;25.08;;
3095;SDS011;1558;42.700;23.360;2023-06-01T08:41:24;27.98;;;25.05;;
3095;SDS011;1558;42.700;23.360;2023-06-01T08:44:01;27.70;;;24.70;;
3095;SDS011;1558;42.700;23.360;2023-06-01T08:46:32;28.38;;;25.63;;
3095;SDS011;1558;42.700;23.360;2023-06-01T08:49:02;28.08;;;24.83;;
3095;SDS011;1558;42.700;23.360;2023-06-01T08:51:32;30.55;;;25.15;;
3095;SDS011;1558;42.700;23.360;2023-06-01T08:54:04;24.00;;;21.60;;
3095;SDS011;1558;42.700;23.360;2023-06-01T08:56:35;23.75;;;21.35;;
3095;SDS011;1558;42.700;23.360;2023-06-01T08:59:09;25.42;;;22.42;;
3095;SDS011;1558;42.700;23.360;2023-06-01T09:01:40;27.00;;;21.60;;
3095;SDS011;1558;42.700;23.360;2023-06-01T09:04:10;26.50;;;23.80;;
3095;SDS011;1558;42.700;23.360;2023-06-01T09:06:41;28.30;;;23.75;;
3095;SDS011;1558;42.700;23.360;2023-06-01T09:09:09;24.92;;;22.50;;
3095;SDS011;1558;42.700;23.360;2023-06-01T09:11:39;24.90;;;22.55;;
3095;SDS011;1558;42.700;23.360;2023-06-01T09:16:56;25.38;;;22.83;;
3095;SDS011;1558;42.700;23.360;2023-06-01T09:19:26;21.10;;;19.10;;
3095;SDS011;1558;42.700;23.360;2023-06-01T09:22:08;22.83;;;20.00;;
3095;SDS011;1558;42.700;23.360;2023-06-01T09:24:36;26.70;;;22.92;;
3095;SDS011;1558;42.700;23.360;2023-06-01T09:27:04;24.10;;;21.00;;
3095;SDS011;1558;42.700;23.360;2023-06-01T09:29:33;20.50;;;18.48;;
3095;SDS011;1558;42.700;23.360;2023-06-01T09:32:01;22.67;;;20.40;;
3095;SDS011;1558;42.700;23.360;2023-06-01T09:34:30;20.15;;;18.00;;
3095;SDS011;1558;42.700;23.360;2023-06-01T09:36:59;18.55;;;16.73;;
3095;SDS011;1558;42.700;23.360;2023-06-01T09:39:34;16.83;;;15.15;;
3095;SDS011;1558;42.700;23.360;2023-06-01T09:42:02;18.17;;;16.45;;
3095;SDS011;1558;42.700;23.360;2023-06-01T09:44:33;19.17;;;14.60;;
3095;SDS011;1558;42.700;23.360;2023-06-01T09:47:02;18.25;;;16.13;;
3095;SDS011;1558;42.700;23.360;2023-06-01T09:49:37;16.02;;;14.32;;
3095;SDS011;1558;42.700;23.360;2023-06-01T09:52:08;17.50;;;14.20;;
3095;SDS011;1558;42.700;23.360;2023-06-01T09:54:39;15.20;;;13.75;;
3095;SDS011;1558;42.700;23.360;2023-06-01T09:57:08;16.73;;;12.95;;
3095;SDS011;1558;42.700;23.360;2023-06-01T09:59:39;15.82;;;12.88;;
3095;SDS011;1558;42.700;23.360;2023-06-01T10:02:11;12.75;;;11.45;;
3095;SDS011;1558;42.700;23.360;2023-06-01T10:04:47;12.82;;;11.35;;
3095;SDS011;1558;42.700;23.360;2023-06-01T10:07:17;17.98;;;13.82;;
3095;SDS011;1558;42.700;23.360;2023-06-01T10:09:47;10.52;;;9.63;;
3095;SDS011;1558;42.700;23.360;2023-06-01T10:12:18;11.63;;;10.43;;
3095;SDS011;1558;42.700;23.360;2023-06-01T10:14:46;12.32;;;11.20;;
3095;SDS011;1558;42.700;23.360;2023-06-01T10:17:15;14.13;;;10.40;;
3095;SDS011;1558;42.700;23.360;2023-06-01T10:19:46;10.48;;;9.50;;
3095;SDS011;1558;42.700;23.360;2023-06-01T10:22:16;10.43;;;9.43;;
3095;SDS011;1558;42.700;23.360;2023-06-01T10:24:47;13.50;;;9.85;;
3095;SDS011;1558;42.700;23.360;2023-06-01T10:27:18;10.43;;;9.52;;
3095;SDS011;1558;42.700;23.360;2023-06-01T10:29:53;13.20;;;10.48;;
3095;SDS011;1558;42.700;23.360;2023-06-01T10:35:10;11.20;;;9.82;;
3095;SDS011;1558;42.700;23.360;2023-06-01T10:38:30;13.38;;;9.90;;
3095;SDS011;1558;42.700;23.360;2023-06-01T10:43:54;11.45;;;9.05;;
3095;SDS011;1558;42.700;23.360;2023-06-01T10:46:36;10.35;;;9.10;;
3095;SDS011;1558;42.700;23.360;2023-06-01T10:49:11;8.48;;;7.68;;
3095;SDS011;1558;42.700;23.360;2023-06-01T10:51:40;7.63;;;6.82;;
3095;SDS011;1558;42.700;23.360;2023-06-01T10:54:28;9.50;;;7.40;;
3095;SDS011;1558;42.700;23.360;2023-06-01T11:02:46;9.20;;;6.88;;
3095;SDS011;1558;42.700;23.360;2023-06-01T11:05:42;11.45;;;8.18;;
3095;SDS011;1558;42.700;23.360;2023-06-01T11:14:25;9.88;;;8.00;;
3095;SDS011;1558;42.700;23.360;2023-06-01T11:16:56;16.52;;;8.70;;
3095;SDS011;1558;42.700;23.360;2023-06-01T11:19:59;9.60;;;7.25;;
3095;SDS011;1558;42.700;23.360;2023-06-01T11:22:37;10.60;;;7.75;;
3095;SDS011;1558;42.700;23.360;2023-06-01T11:25:08;8.38;;;7.57;;
3095;SDS011;1558;42.700;23.360;2023-06-01T11:27:42;9.65;;;7.22;;
3095;SDS011;1558;42.700;23.360;2023-06-01T11:30:11;7.65;;;7.00;;
3095;SDS011;1558;42.700;23.360;2023-06-01T11:32:46;7.35;;;6.65;;
3095;SDS011;1558;42.700;23.360;2023-06-01T11:35:16;7.55;;;5.70;;
3095;SDS011;1558;42.700;23.360;2023-06-01T11:37:52;5.88;;;5.28;;
3095;SDS011;1558;42.700;23.360;2023-06-01T11:40:23;7.10;;;5.82;;
3095;SDS011;1558;42.700;23.360;2023-06-01T11:42:55;6.10;;;5.50;;
3095;SDS011;1558;42.700;23.360;2023-06-01T11:45:24;5.80;;;4.95;;
3095;SDS011;1558;42.700;23.360;2023-06-01T11:47:53;8.48;;;5.50;;
3095;SDS011;1558;42.700;23.360;2023-06-01T11:50:22;5.70;;;5.10;;
3095;SDS011;1558;42.700;23.360;2023-06-01T11:52:54;5.88;;;4.90;;
3095;SDS011;1558;42.700;23.360;2023-06-01T11:55:24;6.38;;;4.97;;
3095;SDS011;1558;42.700;23.360;2023-06-01T11:57:52;5.15;;;4.65;;
3095;SDS011;1558;42.700;23.360;2023-06-01T12:00:21;6.38;;;5.78;;
3095;SDS011;1558;42.700;23.360;2023-06-01T12:02:49;6.35;;;5.75;;
3095;SDS011;1558;42.700;23.360;2023-06-01T12:05:37;6.93;;;6.18;;
3095;SDS011;1558;42.700;23.360;2023-06-01T12:08:06;6.13;;;5.55;;
3095;SDS011;1558;42.700;23.360;2023-06-01T12:10:36;6.07;;;5.57;;
3095;SDS011;1558;42.700;23.360;2023-06-01T12:13:04;6.53;;;5.93;;
3095;SDS011;1558;42.700;23.360;2023-06-01T12:15:33;6.03;;;5.47;;
3095;SDS011;1558;42.700;23.360;2023-06-01T12:18:01;7.80;;;6.57;;
3095;SDS011;1558;42.700;23.360;2023-06-01T12:20:30;6.83;;;6.10;;
3095;SDS011;1558;42.700;23.360;2023-06-01T12:23:02;6.13;;;5.63;;
3095;SDS011;1558;42.700;23.360;2023-06-01T12:25:49;6.33;;;5.37;;
3095;SDS011;1558;42.700;23.360;2023-06-01T12:28:19;5.80;;;5.20;;
3095;SDS011;1558;42.700;23.360;2023-06-01T12:30:48;7.10;;;6.10;;
3095;SDS011;1558;42.700;23.360;2023-06-01T12:33:30;8.83;;;5.30;;
3095;SDS011;1558;42.700;23.360;2023-06-01T12:36:00;6.37;;;5.73;;
3095;SDS011;1558;42.700;23.360;2023-06-01T12:38:31;1.00;;;0.90;;
3095;SDS011;1558;42.700;23.360;2023-06-01T12:41:09;2.03;;;1.50;;
3095;SDS011;1558;42.700;23.360;2023-06-01T12:43:38;2.60;;;1.00;;
3095;SDS011;1558;42.700;23.360;2023-06-01T12:46:16;1.50;;;1.40;;
3095;SDS011;1558;42.700;23.360;2023-06-01T12:48:46;2.10;;;1.43;;
3095;SDS011;1558;42.700;23.360;2023-06-01T12:51:15;2.60;;;1.60;;
3095;SDS011;1558;42.700;23.360;2023-06-01T12:53:43;2.47;;;1.50;;
3095;SDS011;1558;42.700;23.360;2023-06-01T12:56:13;2.87;;;1.43;;
3095;SDS011;1558;42.700;23.360;2023-06-01T12:58:41;2.07;;;1.87;;
3095;SDS011;1558;42.700;23.360;2023-06-01T13:01:10;1.53;;;1.30;;
3095;SDS011;1558;42.700;23.360;2023-06-01T13:03:38;1.67;;;1.57;;
3095;SDS011;1558;42.700;23.360;2023-06-01T13:06:06;1.83;;;1.47;;
3095;SDS011;1558;42.700;23.360;2023-06-01T13:08:35;1.50;;;1.40;;
3095;SDS011;1558;42.700;23.360;2023-06-01T13:11:05;3.43;;;2.00;;
3095;SDS011;1558;42.700;23.360;2023-06-01T13:13:40;1.83;;;1.73;;
3095;SDS011;1558;42.700;23.360;2023-06-01T13:16:10;2.13;;;1.63;;
3095;SDS011;1558;42.700;23.360;2023-06-01T13:18:38;2.00;;;1.80;;
3095;SDS011;1558;42.700;23.360;2023-06-01T13:21:07;2.00;;;1.80;;
3095;SDS011;1558;42.700;23.360;2023-06-01T13:23:36;2.80;;;1.77;;
3095;SDS011;1558;42.700;23.360;2023-06-01T13:26:04;2.10;;;1.57;;
3095;SDS011;1558;42.700;23.360;2023-06-01T13:28:34;2.23;;;1.87;;
3095;SDS011;1558;42.700;23.360;2023-06-01T13:31:04;2.67;;;1.70;;
3095;SDS011;1558;42.700;23.360;2023-06-01T13:33:33;1.52;;;1.42;;
3095;SDS011;1558;42.700;23.360;2023-06-01T13:36:03;2.10;;;1.92;;
3095;SDS011;1558;42.700;23.360;2023-06-01T13:38:31;1.40;;;1.15;;
3095;SDS011;1558;42.700;23.360;2023-06-01T13:41:00;2.58;;;1.92;;
3095;SDS011;1558;42.700;23.360;2023-06-01T13:43:28;2.85;;;2.05;;
3095;SDS011;1558;42.700;23.360;2023-06-01T13:45:56;2.30;;;1.60;;
3095;SDS011;1558;42.700;23.360;2023-06-01T13:48:26;2.88;;;1.27;;
3095;SDS011;1558;42.700;23.360;2023-06-01T13:50:54;2.17;;;1.60;;
3095;SDS011;1558;42.700;23.360;2023-06-01T13:53:22;2.25;;;1.63;;
3095;SDS011;1558;42.700;23.360;2023-06-01T13:55:51;1.30;;;1.20;;
3095;SDS011;1558;42.700;23.360;2023-06-01T13:58:19;1.88;;;1.50;;
3095;SDS011;1558;42.700;23.360;2023-06-01T14:00:47;1.63;;;1.30;;
3095;SDS011;1558;42.700;23.360;2023-06-01T14:03:15;1.98;;;1.67;;
3095;SDS011;1558;42.700;23.360;2023-06-01T14:05:47;1.10;;;0.95;;
3095;SDS011;1558;42.700;23.360;2023-06-01T14:08:29;1.38;;;1.27;;
3095;SDS011;1558;42.700;23.360;2023-06-01T14:11:14;1.20;;;1.10;;
3095;SDS011;1558;42.700;23.360;2023-06-01T14:13:42;1.50;;;1.40;;
3095;SDS011;1558;42.700;23.360;2023-06-01T14:16:10;1.33;;;1.10;;
3095;SDS011;1558;42.700;23.360;2023-06-01T14:18:38;1.08;;;1.08;;
3095;SDS011;1558;42.700;23.360;2023-06-01T14:21:08;0.80;;;0.80;;
3095;SDS011;1558;42.700;23.360;2023-06-01T14:23:37;1.50;;;1.40;;
3095;SDS011;1558;42.700;23.360;2023-06-01T14:26:09;1.15;;;1.13;;
3095;SDS011;1558;42.700;23.360;2023-06-01T14:28:37;1.55;;;1.45;;
3095;SDS011;1558;42.700;23.360;2023-06-01T14:31:05;2.33;;;1.52;;
3095;SDS011;1558;42.700;23.360;2023-06-01T14:33:34;1.77;;;1.30;;
3095;SDS011;1558;42.700;23.360;2023-06-01T14:36:02;5.22;;;3.65;;
3095;SDS011;1558;42.700;23.360;2023-06-01T14:38:32;6.32;;;5.15;;
3095;SDS011;1558;42.700;23.360;2023-06-01T14:41:00;6.38;;;5.63;;
3095;SDS011;1558;42.700;23.360;2023-06-01T14:43:29;10.45;;;5.82;;
3095;SDS011;1558;42.700;23.360;2023-06-01T14:45:57;9.43;;;5.90;;
3095;SDS011;1558;42.700;23.360;2023-06-01T14:48:26;6.63;;;5.70;;
3095;SDS011;1558;42.700;23.360;2023-06-01T14:50:54;6.95;;;5.75;;
3095;SDS011;1558;42.700;23.360;2023-06-01T14:53:22;6.40;;;5.80;;
3095;SDS011;1558;42.700;23.360;2023-06-01T14:55:52;6.63;;;5.93;;
3095;SDS011;1558;42.700;23.360;2023-06-01T14:58:23;6.88;;;6.15;;
3095;SDS011;1558;42.700;23.360;2023-06-01T15:00:58;10.55;;;6.30;;
3095;SDS011;1558;42.700;23.360;2023-06-01T15:03:26;9.38;;;6.53;;
3095;SDS011;1558;42.700;23.360;2023-06-01T15:05:57;6.78;;;5.22;;
3095;SDS011;1558;42.700;23.360;2023-06-01T15:08:34;12.23;;;5.85;;
3095;SDS011;1558;42.700;23.360;2023-06-01T15:11:05;6.55;;;5.88;;
3095;SDS011;1558;42.700;23.360;2023-06-01T15:13:39;5.95;;;5.50;;
3095;SDS011;1558;42.700;23.360;2023-06-01T15:16:09;6.53;;;5.65;;
3095;SDS011;1558;42.700;23.360;2023-06-01T15:18:37;6.85;;;6.05;;
3095;SDS011;1558;42.700;23.360;2023-06-01T15:21:05;8.90;;;5.65;;
3095;SDS011;1558;42.700;23.360;2023-06-01T15:23:33;8.02;;;5.53;;